sensor_id;sensor_type;location;lat;lon;timestamp;temperature;humidity
15452;DHT22;7827;53.594;9.938;2023-06-24T00:00:04;17.10;99.90
15452;DHT22;7827;53.594;9.938;2023-06-24T00:02:36;17.10;99.90
15452;DHT22;7827;53.594;9.938;2023-06-24T00:05:05;17.10;99.90
15452;DHT22;7827;53.594;9.938;2023-06-24T00:07:35;17.00;99.90
15452;DHT22;7827;53.594;9.938;2023-06-24T00:10:11;17.00;99.90
15452;DHT22;7827;53.594;9.938;2023-06-24T00:12:42;17.00;99.90
15452;DHT22;7827;53.594;9.938;2023-06-24T00:15:11;17.00;99.90
15452;DHT22;7827;53.594;9.938;2023-06-24T00:17:40;17.00;99.90
15452;DHT22;7827;53.594;9.938;2023-06-24T00:20:09;17.00;99.90
15452;DHT22;7827;53.594;9.938;2023-06-24T00:22:41;16.90;99.90
15452;DHT22;7827;53.594;9.938;2023-06-24T00:25:11;16.90;99.90
15452;DHT22;7827;53.594;9.938;2023-06-24T00:27:41;16.90;99.90
15452;DHT22;7827;53.594;9.938;2023-06-24T00:30:11;16.90;99.90
15452;DHT22;7827;53.594;9.938;2023-06-24T00:32:41;16.90;99.90
15452;DHT22;7827;53.594;9.938;2023-06-24T00:35:10;16.90;99.90
15452;DHT22;7827;53.594;9.938;2023-06-24T00:37:40;16.80;99.90
15452;DHT22;7827;53.594;9.938;2023-06-24T00:40:13;16.80;99.90
15452;DHT22;7827;53.594;9.938;2023-06-24T00:42:45;16.80;99.90
15452;DHT22;7827;53.594;9.938;2023-06-24T00:45:13;16.70;99.90
15452;DHT22;7827;53.594;9.938;2023-06-24T00:47:46;16.70;99.90
15452;DHT22;7827;53.594;9.938;2023-06-24T00:50:15;16.70;99.90
15452;DHT22;7827;53.594;9.938;2023-06-24T00:52:44;16.60;99.90
15452;DHT22;7827;53.594;9.938;2023-06-24T00:55:14;16.60;99.90
15452;DHT22;7827;53.594;9.938;2023-06-24T00:57:44;16.60;99.90
15452;DHT22;7827;53.594;9.938;2023-06-24T01:00:18;16.60;99.90
15452;DHT22;7827;53.594;9.938;2023-06-24T01:02:50;16.60;99.90
15452;DHT22;7827;53.594;9.938;2023-06-24T01:05:19;16.60;99.90
15452;DHT22;7827;53.594;9.938;2023-06-24T01:07:51;16.60;99.90
15452;DHT22;7827;53.594;9.938;2023-06-24T01:10:24;16.50;99.90
15452;DHT22;7827;53.594;9.938;2023-06-24T01:12:53;16.50;99.90
15452;DHT22;7827;53.594;9.938;2023-06-24T01:15:23;16.50;99.90
15452;DHT22;7827;53.594;9.938;2023-06-24T01:17:59;16.40;99.90
15452;DHT22;7827;53.594;9.938;2023-06-24T01:20:39;16.40;99.90
15452;DHT22;7827;53.594;9.938;2023-06-24T01:23:32;16.40;99.90
15452;DHT22;7827;53.594;9.938;2023-06-24T01:26:48;16.40;99.90
15452;DHT22;7827;53.594;9.938;2023-06-24T01:29:42;16.40;99.90
15452;DHT22;7827;53.594;9.938;2023-06-24T01:32:33;16.40;99.90
15452;DHT22;7827;53.594;9.938;2023-06-24T01:35:08;16.30;99.90
15452;DHT22;7827;53.594;9.938;2023-06-24T01:37:42;16.30;99.90
15452;DHT22;7827;53.594;9.938;2023-06-24T01:40:20;16.30;99.90
15452;DHT22;7827;53.594;9.938;2023-06-24T01:42:54;16.30;99.90
15452;DHT22;7827;53.594;9.938;2023-06-24T01:45:28;16.30;99.90
15452;DHT22;7827;53.594;9.938;2023-06-24T01:48:06;16.30;99.90
15452;DHT22;7827;53.594;9.938;2023-06-24T01:50:39;16.20;99.90
15452;DHT22;7827;53.594;9.938;2023-06-24T01:53:12;16.20;99.90
15452;DHT22;7827;53.594;9.938;2023-06-24T01:55:43;16.20;99.90
15452;DHT22;7827;53.594;9.938;2023-06-24T01:58:17;16.10;99.90
15452;DHT22;7827;53.594;9.938;2023-06-24T02:00:47;16.10;99.90
15452;DHT22;7827;53.594;9.938;2023-06-24T02:03:18;16.10;99.90
15452;DHT22;7827;53.594;9.938;2023-06-24T02:05:48;16.10;99.90
15452;DHT22;7827;53.594;9.938;2023-06-24T02:08:19;16.00;99.90
15452;DHT22;7827;53.594;9.938;2023-06-24T02:10:50;16.00;99.90
15452;DHT22;7827;53.594;9.938;2023-06-24T02:13:20;16.00;99.90
15452;DHT22;7827;53.594;9.938;2023-06-24T02:15:50;16.00;99.90
15452;DHT22;7827;53.594;9.938;2023-06-24T02:18:22;16.00;99.90
15452;DHT22;7827;53.594;9.938;2023-06-24T02:20:51;16.00;99.90
15452;DHT22;7827;53.594;9.938;2023-06-24T02:23:20;16.00;99.90
15452;DHT22;7827;53.594;9.938;2023-06-24T02:25:50;16.00;99.90
15452;DHT22;7827;53.594;9.938;2023-06-24T02:28:20;16.00;99.90
15452;DHT22;7827;53.594;9.938;2023-06-24T02:30:49;16.00;99.90
15452;DHT22;7827;53.594;9.938;2023-06-24T02:33:19;16.00;99.90
15452;DHT22;7827;53.594;9.938;2023-06-24T02:35:49;16.00;99.90
15452;DHT22;7827;53.594;9.938;2023-06-24T02:38:17;16.00;99.90
15452;DHT22;7827;53.594;9.938;2023-06-24T02:40:47;15.90;99.90
15452;DHT22;7827;53.594;9.938;2023-06-24T02:43:17;15.90;99.90
15452;DHT22;7827;53.594;9.938;2023-06-24T02:45:47;15.90;99.90
15452;DHT22;7827;53.594;9.938;2023-06-24T02:48:17;15.80;99.90
15452;DHT22;7827;53.594;9.938;2023-06-24T02:50:50;15.90;99.90
15452;DHT22;7827;53.594;9.938;2023-06-24T02:53:19;15.80;99.90
15452;DHT22;7827;53.594;9.938;2023-06-24T02:55:49;15.80;99.90
15452;DHT22;7827;53.594;9.938;2023-06-24T02:58:18;15.70;99.90
15452;DHT22;7827;53.594;9.938;2023-06-24T03:01:01;15.80;99.90
15452;DHT22;7827;53.594;9.938;2023-06-24T03:03:47;15.70;99.90
15452;DHT22;7827;53.594;9.938;2023-06-24T03:06:19;15.70;99.90
15452;DHT22;7827;53.594;9.938;2023-06-24T03:08:49;15.70;99.90
15452;DHT22;7827;53.594;9.938;2023-06-24T03:11:20;15.80;99.90
15452;DHT22;7827;53.594;9.938;2023-06-24T03:13:49;15.70;99.90
15452;DHT22;7827;53.594;9.938;2023-06-24T03:16:20;15.70;99.90
15452;DHT22;7827;53.594;9.938;2023-06-24T03:19:12;15.80;99.90
15452;DHT22;7827;53.594;9.938;2023-06-24T03:21:43;15.80;99.90
15452;DHT22;7827;53.594;9.938;2023-06-24T03:24:14;15.80;99.90
15452;DHT22;7827;53.594;9.938;2023-06-24T03:26:47;15.80;99.90
15452;DHT22;7827;53.594;9.938;2023-06-24T03:29:18;15.80;99.90
15452;DHT22;7827;53.594;9.938;2023-06-24T03:31:54;15.80;99.90
15452;DHT22;7827;53.594;9.938;2023-06-24T03:34:25;15.90;99.90
15452;DHT22;7827;53.594;9.938;2023-06-24T03:36:55;15.90;99.90
15452;DHT22;7827;53.594;9.938;2023-06-24T03:39:25;16.00;99.90
15452;DHT22;7827;53.594;9.938;2023-06-24T03:41:53;16.10;99.90
15452;DHT22;7827;53.594;9.938;2023-06-24T03:44:22;16.10;99.90
15452;DHT22;7827;53.594;9.938;2023-06-24T03:46:50;16.20;99.90
15452;DHT22;7827;53.594;9.938;2023-06-24T03:49:19;16.30;99.90
15452;DHT22;7827;53.594;9.938;2023-06-24T03:51:48;16.30;99.90
15452;DHT22;7827;53.594;9.938;2023-06-24T03:54:17;16.40;99.90
15452;DHT22;7827;53.594;9.938;2023-06-24T03:56:46;16.50;99.90
15452;DHT22;7827;53.594;9.938;2023-06-24T03:59:14;16.80;99.90
15452;DHT22;7827;53.594;9.938;2023-06-24T04:01:43;17.20;99.90
15452;DHT22;7827;53.594;9.938;2023-06-24T04:04:11;17.60;99.90
15452;DHT22;7827;53.594;9.938;2023-06-24T04:06:39;18.00;99.90
15452;DHT22;7827;53.594;9.938;2023-06-24T04:09:08;18.40;99.90
15452;DHT22;7827;53.594;9.938;2023-06-24T04:11:38;18.70;94.40
15452;DHT22;7827;53.594;9.938;2023-06-24T04:14:07;19.10;51.10
15452;DHT22;7827;53.594;9.938;2023-06-24T04:16:36;19.30;1.00
15452;DHT22;7827;53.594;9.938;2023-06-24T04:19:04;19.70;1.00
15452;DHT22;7827;53.594;9.938;2023-06-24T04:21:33;19.90;1.00
15452;DHT22;7827;53.594;9.938;2023-06-24T04:24:01;20.10;99.90
15452;DHT22;7827;53.594;9.938;2023-06-24T04:26:30;20.20;17.30
15452;DHT22;7827;53.594;9.938;2023-06-24T04:29:00;20.40;99.90
15452;DHT22;7827;53.594;9.938;2023-06-24T04:31:29;20.50;1.00
15452;DHT22;7827;53.594;9.938;2023-06-24T04:33:57;20.50;99.90
15452;DHT22;7827;53.594;9.938;2023-06-24T04:36:26;20.60;1.00
15452;DHT22;7827;53.594;9.938;2023-06-24T04:38:54;20.60;1.00
15452;DHT22;7827;53.594;9.938;2023-06-24T04:41:23;20.70;99.90
15452;DHT22;7827;53.594;9.938;2023-06-24T04:43:52;20.70;1.00
15452;DHT22;7827;53.594;9.938;2023-06-24T04:46:22;20.70;99.90
15452;DHT22;7827;53.594;9.938;2023-06-24T04:48:50;20.40;1.00
15452;DHT22;7827;53.594;9.938;2023-06-24T04:51:18;20.20;1.00
15452;DHT22;7827;53.594;9.938;2023-06-24T04:53:47;20.10;99.90
15452;DHT22;7827;53.594;9.938;2023-06-24T04:56:15;20.10;1.00
15452;DHT22;7827;53.594;9.938;2023-06-24T04:58:44;20.10;1.00
15452;DHT22;7827;53.594;9.938;2023-06-24T05:01:12;20.20;99.90
15452;DHT22;7827;53.594;9.938;2023-06-24T05:03:42;20.20;1.00
15452;DHT22;7827;53.594;9.938;2023-06-24T05:06:10;20.20;57.00
15452;DHT22;7827;53.594;9.938;2023-06-24T05:08:39;20.20;99.90
15452;DHT22;7827;53.594;9.938;2023-06-24T05:11:07;20.30;99.90
15452;DHT22;7827;53.594;9.938;2023-06-24T05:13:36;20.40;99.90
15452;DHT22;7827;53.594;9.938;2023-06-24T05:16:05;20.50;1.00
15452;DHT22;7827;53.594;9.938;2023-06-24T05:18:34;20.50;99.90
15452;DHT22;7827;53.594;9.938;2023-06-24T05:21:04;20.30;99.90
15452;DHT22;7827;53.594;9.938;2023-06-24T05:23:32;19.90;99.90
15452;DHT22;7827;53.594;9.938;2023-06-24T05:26:00;19.90;1.00
15452;DHT22;7827;53.594;9.938;2023-06-24T05:28:29;19.80;1.00
15452;DHT22;7827;53.594;9.938;2023-06-24T05:30:57;19.80;99.90
15452;DHT22;7827;53.594;9.938;2023-06-24T05:33:26;19.90;1.00
15452;DHT22;7827;53.594;9.938;2023-06-24T05:35:54;19.90;99.90
15452;DHT22;7827;53.594;9.938;2023-06-24T05:38:24;19.80;99.90
15452;DHT22;7827;53.594;9.938;2023-06-24T05:40:52;19.80;99.90
15452;DHT22;7827;53.594;9.938;2023-06-24T05:43:20;19.90;99.90
15452;DHT22;7827;53.594;9.938;2023-06-24T05:45:49;20.10;1.00
15452;DHT22;7827;53.594;9.938;2023-06-24T05:48:17;20.10;80.20
15452;DHT22;7827;53.594;9.938;2023-06-24T05:50:45;20.00;1.00
15452;DHT22;7827;53.594;9.938;2023-06-24T05:53:14;20.10;1.00
15452;DHT22;7827;53.594;9.938;2023-06-24T05:55:43;20.10;1.00
15452;DHT22;7827;53.594;9.938;2023-06-24T05:58:12;20.20;99.90
15452;DHT22;7827;53.594;9.938;2023-06-24T06:00:40;20.30;99.90
15452;DHT22;7827;53.594;9.938;2023-06-24T06:03:09;20.20;99.90
15452;DHT22;7827;53.594;9.938;2023-06-24T06:05:37;20.20;99.90
15452;DHT22;7827;53.594;9.938;2023-06-24T06:08:06;20.00;1.00
15452;DHT22;7827;53.594;9.938;2023-06-24T06:10:34;19.80;99.90
15452;DHT22;7827;53.594;9.938;2023-06-24T06:13:04;19.80;1.00
15452;DHT22;7827;53.594;9.938;2023-06-24T06:15:32;19.90;1.00
15452;DHT22;7827;53.594;9.938;2023-06-24T06:18:01;20.10;1.00
15452;DHT22;7827;53.594;9.938;2023-06-24T06:20:29;20.10;99.90
15452;DHT22;7827;53.594;9.938;2023-06-24T06:22:57;20.10;1.00
15452;DHT22;7827;53.594;9.938;2023-06-24T06:25:29;20.00;1.00
15452;DHT22;7827;53.594;9.938;2023-06-24T06:27:57;20.00;99.90
15452;DHT22;7827;53.594;9.938;2023-06-24T06:30:28;20.10;1.00
15452;DHT22;7827;53.594;9.938;2023-06-24T06:32:56;20.00;1.00
15452;DHT22;7827;53.594;9.938;2023-06-24T06:35:25;20.00;99.90
15452;DHT22;7827;53.594;9.938;2023-06-24T06:37:53;20.10;99.90
15452;DHT22;7827;53.594;9.938;2023-06-24T06:40:23;20.20;1.00
15452;DHT22;7827;53.594;9.938;2023-06-24T06:42:51;20.30;1.00
15452;DHT22;7827;53.594;9.938;2023-06-24T06:45:20;20.40;99.90
15452;DHT22;7827;53.594;9.938;2023-06-24T06:47:50;20.30;1.00
15452;DHT22;7827;53.594;9.938;2023-06-24T06:50:19;20.20;80.60
15452;DHT22;7827;53.594;9.938;2023-06-24T06:52:47;20.20;99.90
15452;DHT22;7827;53.594;9.938;2023-06-24T06:55:16;20.30;1.00
15452;DHT22;7827;53.594;9.938;2023-06-24T06:57:44;20.10;1.00
15452;DHT22;7827;53.594;9.938;2023-06-24T07:00:13;20.20;1.00
15452;DHT22;7827;53.594;9.938;2023-06-24T07:02:42;20.20;99.90
15452;DHT22;7827;53.594;9.938;2023-06-24T07:05:12;20.20;99.90
15452;DHT22;7827;53.594;9.938;2023-06-24T07:07:40;20.30;37.50
15452;DHT22;7827;53.594;9.938;2023-06-24T07:10:10;20.50;1.00
15452;DHT22;7827;53.594;9.938;2023-06-24T07:12:39;20.40;1.00
15452;DHT22;7827;53.594;9.938;2023-06-24T07:15:08;20.50;99.90
15452;DHT22;7827;53.594;9.938;2023-06-24T07:17:40;20.60;99.90
15452;DHT22;7827;53.594;9.938;2023-06-24T07:20:09;20.50;99.90
15452;DHT22;7827;53.594;9.938;2023-06-24T07:22:39;20.50;99.90
15452;DHT22;7827;53.594;9.938;2023-06-24T07:25:08;20.50;99.90
15452;DHT22;7827;53.594;9.938;2023-06-24T07:27:36;20.50;1.00
15452;DHT22;7827;53.594;9.938;2023-06-24T07:30:06;20.50;1.00
15452;DHT22;7827;53.594;9.938;2023-06-24T07:32:35;20.70;1.00
15452;DHT22;7827;53.594;9.938;2023-06-24T07:35:04;20.60;99.90
15452;DHT22;7827;53.594;9.938;2023-06-24T07:37:34;20.70;99.90
15452;DHT22;7827;53.594;9.938;2023-06-24T07:40:06;20.90;1.00
15452;DHT22;7827;53.594;9.938;2023-06-24T07:42:35;21.00;99.90
15452;DHT22;7827;53.594;9.938;2023-06-24T07:45:04;21.10;99.90
15452;DHT22;7827;53.594;9.938;2023-06-24T07:47:33;21.10;99.90
15452;DHT22;7827;53.594;9.938;2023-06-24T07:50:01;21.20;1.00
15452;DHT22;7827;53.594;9.938;2023-06-24T07:52:30;21.10;62.20
15452;DHT22;7827;53.594;9.938;2023-06-24T07:54:59;21.30;1.00
15452;DHT22;7827;53.594;9.938;2023-06-24T07:57:29;21.30;99.90
15452;DHT22;7827;53.594;9.938;2023-06-24T07:59:57;21.40;99.90
15452;DHT22;7827;53.594;9.938;2023-06-24T08:02:26;21.50;99.90
15452;DHT22;7827;53.594;9.938;2023-06-24T08:04:54;21.50;99.90
15452;DHT22;7827;53.594;9.938;2023-06-24T08:07:23;21.40;99.90
15452;DHT22;7827;53.594;9.938;2023-06-24T08:09:51;21.40;1.00
15452;DHT22;7827;53.594;9.938;2023-06-24T08:12:20;21.40;99.90
15452;DHT22;7827;53.594;9.938;2023-06-24T08:14:49;21.40;1.00
15452;DHT22;7827;53.594;9.938;2023-06-24T08:17:18;21.40;99.90
15452;DHT22;7827;53.594;9.938;2023-06-24T08:19:46;21.50;1.00
15452;DHT22;7827;53.594;9.938;2023-06-24T08:22:15;21.60;99.90
15452;DHT22;7827;53.594;9.938;2023-06-24T08:24:43;21.70;99.90
15452;DHT22;7827;53.594;9.938;2023-06-24T08:27:18;21.80;1.00
15452;DHT22;7827;53.594;9.938;2023-06-24T08:29:46;21.90;99.90
15452;DHT22;7827;53.594;9.938;2023-06-24T08:32:16;21.80;76.20
15452;DHT22;7827;53.594;9.938;2023-06-24T08:34:44;21.80;99.90
15452;DHT22;7827;53.594;9.938;2023-06-24T08:37:13;21.80;99.90
15452;DHT22;7827;53.594;9.938;2023-06-24T08:39:42;21.80;1.00
15452;DHT22;7827;53.594;9.938;2023-06-24T08:42:10;21.90;99.90
15452;DHT22;7827;53.594;9.938;2023-06-24T08:44:39;21.90;32.00
15452;DHT22;7827;53.594;9.938;2023-06-24T08:47:07;22.00;1.00
15452;DHT22;7827;53.594;9.938;2023-06-24T08:49:45;21.70;99.90
15452;DHT22;7827;53.594;9.938;2023-06-24T08:52:16;21.70;99.90
15452;DHT22;7827;53.594;9.938;2023-06-24T08:54:46;21.90;1.00
15452;DHT22;7827;53.594;9.938;2023-06-24T08:57:18;22.00;1.00
15452;DHT22;7827;53.594;9.938;2023-06-24T08:59:46;22.30;99.90
15452;DHT22;7827;53.594;9.938;2023-06-24T09:02:15;22.40;1.00
15452;DHT22;7827;53.594;9.938;2023-06-24T09:04:45;22.30;99.90
15452;DHT22;7827;53.594;9.938;2023-06-24T09:07:13;22.10;28.10
15452;DHT22;7827;53.594;9.938;2023-06-24T09:09:51;22.10;1.00
15452;DHT22;7827;53.594;9.938;2023-06-24T09:12:19;22.30;1.00
15452;DHT22;7827;53.594;9.938;2023-06-24T09:14:48;22.30;1.00
15452;DHT22;7827;53.594;9.938;2023-06-24T09:17:18;22.50;99.90
15452;DHT22;7827;53.594;9.938;2023-06-24T09:19:51;22.40;99.90
15452;DHT22;7827;53.594;9.938;2023-06-24T09:22:19;22.40;1.00
15452;DHT22;7827;53.594;9.938;2023-06-24T09:24:48;22.50;1.00
15452;DHT22;7827;53.594;9.938;2023-06-24T09:27:17;22.70;99.90
15452;DHT22;7827;53.594;9.938;2023-06-24T09:29:47;22.90;1.00
15452;DHT22;7827;53.594;9.938;2023-06-24T09:32:15;23.00;1.00
15452;DHT22;7827;53.594;9.938;2023-06-24T09:34:44;22.90;1.00
15452;DHT22;7827;53.594;9.938;2023-06-24T09:37:22;22.90;99.90
15452;DHT22;7827;53.594;9.938;2023-06-24T09:39:51;23.00;85.80
15452;DHT22;7827;53.594;9.938;2023-06-24T09:42:21;23.00;99.90
15452;DHT22;7827;53.594;9.938;2023-06-24T09:44:53;23.10;1.00
15452;DHT22;7827;53.594;9.938;2023-06-24T09:47:22;23.00;99.90
15452;DHT22;7827;53.594;9.938;2023-06-24T09:49:53;22.90;99.90
15452;DHT22;7827;53.594;9.938;2023-06-24T09:52:23;23.00;99.90
15452;DHT22;7827;53.594;9.938;2023-06-24T09:54:54;23.10;99.90
15452;DHT22;7827;53.594;9.938;2023-06-24T09:57:27;23.20;88.60
15452;DHT22;7827;53.594;9.938;2023-06-24T09:59:58;23.30;1.00
15452;DHT22;7827;53.594;9.938;2023-06-24T10:02:32;23.30;1.00
15452;DHT22;7827;53.594;9.938;2023-06-24T10:05:01;23.40;1.00
15452;DHT22;7827;53.594;9.938;2023-06-24T10:07:33;23.40;1.00
15452;DHT22;7827;53.594;9.938;2023-06-24T10:10:04;23.50;78.40
15452;DHT22;7827;53.594;9.938;2023-06-24T10:12:34;23.60;99.90
15452;DHT22;7827;53.594;9.938;2023-06-24T10:15:04;23.70;1.00
15452;DHT22;7827;53.594;9.938;2023-06-24T10:17:33;23.80;99.90
15452;DHT22;7827;53.594;9.938;2023-06-24T10:20:04;23.70;54.40
15452;DHT22;7827;53.594;9.938;2023-06-24T10:22:35;23.70;1.00
15452;DHT22;7827;53.594;9.938;2023-06-24T10:25:06;23.80;1.00
15452;DHT22;7827;53.594;9.938;2023-06-24T10:27:39;23.80;1.00
15452;DHT22;7827;53.594;9.938;2023-06-24T10:30:17;24.00;1.00
15452;DHT22;7827;53.594;9.938;2023-06-24T10:32:51;24.10;99.90
15452;DHT22;7827;53.594;9.938;2023-06-24T10:35:22;24.30;99.90
15452;DHT22;7827;53.594;9.938;2023-06-24T10:37:58;24.30;1.00
15452;DHT22;7827;53.594;9.938;2023-06-24T10:40:38;24.30;99.90
15452;DHT22;7827;53.594;9.938;2023-06-24T10:43:25;24.30;1.00
15452;DHT22;7827;53.594;9.938;2023-06-24T10:45:57;24.30;1.00
15452;DHT22;7827;53.594;9.938;2023-06-24T10:48:26;24.30;99.90
15452;DHT22;7827;53.594;9.938;2023-06-24T10:50:54;24.30;1.00
15452;DHT22;7827;53.594;9.938;2023-06-24T10:53:24;24.40;99.90
15452;DHT22;7827;53.594;9.938;2023-06-24T10:55:57;24.50;1.00
15452;DHT22;7827;53.594;9.938;2023-06-24T10:58:26;24.40;1.00
15452;DHT22;7827;53.594;9.938;2023-06-24T11:01:06;24.50;1.00
15452;DHT22;7827;53.594;9.938;2023-06-24T11:03:36;24.50;1.00
15452;DHT22;7827;53.594;9.938;2023-06-24T11:06:10;24.60;1.00
15452;DHT22;7827;53.594;9.938;2023-06-24T11:08:44;24.60;1.00
15452;DHT22;7827;53.594;9.938;2023-06-24T11:11:19;24.70;99.90
15452;DHT22;7827;53.594;9.938;2023-06-24T11:13:49;24.60;99.90
15452;DHT22;7827;53.594;9.938;2023-06-24T11:16:20;24.50;1.00
15452;DHT22;7827;53.594;9.938;2023-06-24T11:18:49;24.50;1.00
15452;DHT22;7827;53.594;9.938;2023-06-24T11:21:18;24.60;1.00
15452;DHT22;7827;53.594;9.938;2023-06-24T11:23:47;24.90;1.00
15452;DHT22;7827;53.594;9.938;2023-06-24T11:26:16;25.00;99.90
15452;DHT22;7827;53.594;9.938;2023-06-24T11:28:44;25.10;99.90
15452;DHT22;7827;53.594;9.938;2023-06-24T11:31:12;24.80;1.00
15452;DHT22;7827;53.594;9.938;2023-06-24T11:33:41;24.80;37.00
15452;DHT22;7827;53.594;9.938;2023-06-24T11:36:10;24.80;99.90
15452;DHT22;7827;53.594;9.938;2023-06-24T11:38:38;24.60;38.00
15452;DHT22;7827;53.594;9.938;2023-06-24T11:41:08;24.50;99.90
15452;DHT22;7827;53.594;9.938;2023-06-24T11:43:36;24.70;1.00
15452;DHT22;7827;53.594;9.938;2023-06-24T11:46:04;24.80;1.00
15452;DHT22;7827;53.594;9.938;2023-06-24T11:48:39;25.00;1.00
15452;DHT22;7827;53.594;9.938;2023-06-24T11:51:12;25.20;1.00
15452;DHT22;7827;53.594;9.938;2023-06-24T11:53:41;25.30;99.90
15452;DHT22;7827;53.594;9.938;2023-06-24T11:56:11;25.10;99.90
15452;DHT22;7827;53.594;9.938;2023-06-24T11:58:42;25.10;1.00
15452;DHT22;7827;53.594;9.938;2023-06-24T12:01:11;25.00;1.00
15452;DHT22;7827;53.594;9.938;2023-06-24T12:03:41;24.80;1.00
15452;DHT22;7827;53.594;9.938;2023-06-24T12:06:09;24.80;1.00
15452;DHT22;7827;53.594;9.938;2023-06-24T12:08:38;25.00;1.00
15452;DHT22;7827;53.594;9.938;2023-06-24T12:11:19;25.20;99.90
15452;DHT22;7827;53.594;9.938;2023-06-24T12:13:48;25.30;1.00
15452;DHT22;7827;53.594;9.938;2023-06-24T12:16:16;25.00;1.00
15452;DHT22;7827;53.594;9.938;2023-06-24T12:18:45;25.00;99.90
15452;DHT22;7827;53.594;9.938;2023-06-24T12:21:13;25.10;1.00
15452;DHT22;7827;53.594;9.938;2023-06-24T12:23:41;25.10;99.90
15452;DHT22;7827;53.594;9.938;2023-06-24T12:26:10;25.00;1.00
15452;DHT22;7827;53.594;9.938;2023-06-24T12:28:39;25.10;99.90
15452;DHT22;7827;53.594;9.938;2023-06-24T12:31:08;25.30;99.90
15452;DHT22;7827;53.594;9.938;2023-06-24T12:33:36;25.30;21.10
15452;DHT22;7827;53.594;9.938;2023-06-24T12:36:05;25.50;1.00
15452;DHT22;7827;53.594;9.938;2023-06-24T12:38:33;25.50;1.00
15452;DHT22;7827;53.594;9.938;2023-06-24T12:41:02;25.30;1.00
15452;DHT22;7827;53.594;9.938;2023-06-24T12:43:32;25.30;1.00
15452;DHT22;7827;53.594;9.938;2023-06-24T12:46:01;25.30;99.90
15452;DHT22;7827;53.594;9.938;2023-06-24T12:48:30;25.30;1.00
15452;DHT22;7827;53.594;9.938;2023-06-24T12:50:58;25.40;1.00
15452;DHT22;7827;53.594;9.938;2023-06-24T12:53:27;25.50;1.00
15452;DHT22;7827;53.594;9.938;2023-06-24T12:55:56;25.30;1.00
15452;DHT22;7827;53.594;9.938;2023-06-24T12:58:24;25.20;1.00
15452;DHT22;7827;53.594;9.938;2023-06-24T13:00:53;25.10;1.00
15452;DHT22;7827;53.594;9.938;2023-06-24T13:03:23;25.20;1.00
15452;DHT22;7827;53.594;9.938;2023-06-24T13:05:51;25.30;99.90
15452;DHT22;7827;53.594;9.938;2023-06-24T13:08:20;25.30;1.00
15452;DHT22;7827;53.594;9.938;2023-06-24T13:10:48;25.30;99.90
15452;DHT22;7827;53.594;9.938;2023-06-24T13:13:17;25.10;1.00
15452;DHT22;7827;53.594;9.938;2023-06-24T13:15:45;25.20;1.00
15452;DHT22;7827;53.594;9.938;2023-06-24T13:18:13;25.20;50.60
15452;DHT22;7827;53.594;9.938;2023-06-24T13:20:43;25.20;99.90
15452;DHT22;7827;53.594;9.938;2023-06-24T13:23:11;25.30;1.00
15452;DHT22;7827;53.594;9.938;2023-06-24T13:25:40;25.30;1.00
15452;DHT22;7827;53.594;9.938;2023-06-24T13:28:08;25.40;99.90
15452;DHT22;7827;53.594;9.938;2023-06-24T13:30:37;25.60;99.90
15452;DHT22;7827;53.594;9.938;2023-06-24T13:33:05;25.50;99.90
15452;DHT22;7827;53.594;9.938;2023-06-24T13:35:33;25.40;1.00
15452;DHT22;7827;53.594;9.938;2023-06-24T13:38:03;25.30;1.00
15452;DHT22;7827;53.594;9.938;2023-06-24T13:40:34;25.20;1.00
15452;DHT22;7827;53.594;9.938;2023-06-24T13:43:06;25.30;1.00
15452;DHT22;7827;53.594;9.938;2023-06-24T13:45:34;25.40;1.00
15452;DHT22;7827;53.594;9.938;2023-06-24T13:48:03;25.30;99.90
15452;DHT22;7827;53.594;9.938;2023-06-24T13:50:31;25.30;99.90
15452;DHT22;7827;53.594;9.938;2023-06-24T13:53:00;25.40;1.00
15452;DHT22;7827;53.594;9.938;2023-06-24T13:55:30;25.40;1.00
15452;DHT22;7827;53.594;9.938;2023-06-24T13:57:59;25.40;1.00
15452;DHT22;7827;53.594;9.938;2023-06-24T14:00:28;25.30;99.90
15452;DHT22;7827;53.594;9.938;2023-06-24T14:02:56;25.20;99.90
15452;DHT22;7827;53.594;9.938;2023-06-24T14:05:25;25.10;99.90
15452;DHT22;7827;53.594;9.938;2023-06-24T14:07:53;25.10;1.00
15452;DHT22;7827;53.594;9.938;2023-06-24T14:10:24;25.20;93.90
15452;DHT22;7827;53.594;9.938;2023-06-24T14:12:52;25.20;1.00
15452;DHT22;7827;53.594;9.938;2023-06-24T14:15:21;25.30;1.00
15452;DHT22;7827;53.594;9.938;2023-06-24T14:17:49;25.30;1.00
15452;DHT22;7827;53.594;9.938;2023-06-24T14:20:18;25.30;1.00
15452;DHT22;7827;53.594;9.938;2023-06-24T14:22:46;25.30;1.00
15452;DHT22;7827;53.594;9.938;2023-06-24T14:25:14;25.30;1.00
15452;DHT22;7827;53.594;9.938;2023-06-24T14:27:44;25.30;1.00
15452;DHT22;7827;53.594;9.938;2023-06-24T14:30:13;25.30;1.00
15452;DHT22;7827;53.594;9.938;2023-06-24T14:32:41;25.40;1.00
15452;DHT22;7827;53.594;9.938;2023-06-24T14:35:10;25.60;1.00
15452;DHT22;7827;53.594;9.938;2023-06-24T14:37:38;25.80;94.60
15452;DHT22;7827;53.594;9.938;2023-06-24T14:40:07;25.80;1.00
15452;DHT22;7827;53.594;9.938;2023-06-24T14:42:36;25.70;61.60
15452;DHT22;7827;53.594;9.938;2023-06-24T14:45:06;25.90;1.00
15452;DHT22;7827;53.594;9.938;2023-06-24T14:47:35;26.10;99.90
15452;DHT22;7827;53.594;9.938;2023-06-24T14:50:04;26.40;1.00
15452;DHT22;7827;53.594;9.938;2023-06-24T14:52:33;26.50;1.00
15452;DHT22;7827;53.594;9.938;2023-06-24T14:55:01;26.80;35.80
15452;DHT22;7827;53.594;9.938;2023-06-24T14:57:30;26.70;1.00
15452;DHT22;7827;53.594;9.938;2023-06-24T14:59:58;26.80;1.00
15452;DHT22;7827;53.594;9.938;2023-06-24T15:02:28;26.90;1.00
15452;DHT22;7827;53.594;9.938;2023-06-24T15:04:58;27.00;1.00
15452;DHT22;7827;53.594;9.938;2023-06-24T15:07:26;27.00;1.00
15452;DHT22;7827;53.594;9.938;2023-06-24T15:09:55;27.10;1.00
15452;DHT22;7827;53.594;9.938;2023-06-24T15:12:23;27.00;99.90
15452;DHT22;7827;53.594;9.938;2023-06-24T15:14:51;27.00;1.00
15452;DHT22;7827;53.594;9.938;2023-06-24T15:17:20;26.90;99.90
15452;DHT22;7827;53.594;9.938;2023-06-24T15:19:52;26.70;1.00
15452;DHT22;7827;53.594;9.938;2023-06-24T15:22:21;26.60;1.00
15452;DHT22;7827;53.594;9.938;2023-06-24T15:24:50;26.50;99.90
15452;DHT22;7827;53.594;9.938;2023-06-24T15:27:18;26.30;1.00
15452;DHT22;7827;53.594;9.938;2023-06-24T15:29:47;26.20;1.00
15452;DHT22;7827;53.594;9.938;2023-06-24T15:32:17;26.10;99.90
15452;DHT22;7827;53.594;9.938;2023-06-24T15:34:46;26.00;99.90
15452;DHT22;7827;53.594;9.938;2023-06-24T15:37:15;25.80;99.50
15452;DHT22;7827;53.594;9.938;2023-06-24T15:39:44;25.70;99.90
15452;DHT22;7827;53.594;9.938;2023-06-24T15:42:13;25.60;99.90
15452;DHT22;7827;53.594;9.938;2023-06-24T15:44:41;25.70;40.50
15452;DHT22;7827;53.594;9.938;2023-06-24T15:47:10;25.70;99.90
15452;DHT22;7827;53.594;9.938;2023-06-24T15:49:38;25.70;99.90
15452;DHT22;7827;53.594;9.938;2023-06-24T15:52:07;25.70;1.00
15452;DHT22;7827;53.594;9.938;2023-06-24T15:54:37;25.80;1.00
15452;DHT22;7827;53.594;9.938;2023-06-24T15:57:05;25.80;1.00
15452;DHT22;7827;53.594;9.938;2023-06-24T15:59:33;25.70;99.90
15452;DHT22;7827;53.594;9.938;2023-06-24T16:02:05;25.70;99.90
15452;DHT22;7827;53.594;9.938;2023-06-24T16:04:34;25.70;99.90
15452;DHT22;7827;53.594;9.938;2023-06-24T16:07:02;25.60;99.90
15452;DHT22;7827;53.594;9.938;2023-06-24T16:09:31;25.60;99.90